sensor_id;sensor_type;location;lat;lon;timestamp;P1;durP1;ratioP1;P2;durP2;ratioP2
50631;SDS011;49583;45.590;-122.498;2024-03-08T00:01:52;1.10;;;0.70;;
50631;SDS011;49583;45.590;-122.498;2024-03-08T00:04:05;1.90;;;0.70;;
50631;SDS011;49583;45.590;-122.498;2024-03-08T00:06:18;0.50;;;0.50;;
50631;SDS011;49583;45.590;-122.498;2024-03-08T00:08:32;0.60;;;0.60;;
50631;SDS011;49583;45.590;-122.498;2024-03-08T00:10:45;2.80;;;0.70;;
50631;SDS011;49583;45.590;-122.498;2024-03-08T00:12:58;0.70;;;0.50;;
50631;SDS011;49583;45.590;-122.498;2024-03-08T00:15:12;0.60;;;0.60;;
50631;SDS011;49583;45.590;-122.498;2024-03-08T00:17:25;2.00;;;0.60;;
50631;SDS011;49583;45.590;-122.498;2024-03-08T00:19:39;0.70;;;0.50;;
50631;SDS011;49583;45.590;-122.498;2024-03-08T00:21:52;3.70;;;0.60;;
50631;SDS011;49583;45.590;-122.498;2024-03-08T00:24:04;0.60;;;0.50;;
50631;SDS011;49583;45.590;-122.498;2024-03-08T00:26:18;1.10;;;0.60;;
50631;SDS011;49583;45.590;-122.498;2024-03-08T00:28:31;0.60;;;0.40;;
50631;SDS011;49583;45.590;-122.498;2024-03-08T00:30:45;0.70;;;0.50;;
50631;SDS011;49583;45.590;-122.498;2024-03-08T00:32:58;1.60;;;0.60;;
50631;SDS011;49583;45.590;-122.498;2024-03-08T00:35:11;0.70;;;0.60;;
50631;SDS011;49583;45.590;-122.498;2024-03-08T00:37:23;1.20;;;0.90;;
50631;SDS011;49583;45.590;-122.498;2024-03-08T00:39:36;0.90;;;0.70;;
50631;SDS011;49583;45.590;-122.498;2024-03-08T00:41:49;1.50;;;0.80;;
50631;SDS011;49583;45.590;-122.498;2024-03-08T00:44:02;1.00;;;0.80;;
50631;SDS011;49583;45.590;-122.498;2024-03-08T00:46:15;3.70;;;0.80;;
50631;SDS011;49583;45.590;-122.498;2024-03-08T00:48:28;1.20;;;1.00;;
50631;SDS011;49583;45.590;-122.498;2024-03-08T00:50:41;2.60;;;0.90;;
50631;SDS011;49583;45.590;-122.498;2024-03-08T00:52:54;0.90;;;0.70;;
50631;SDS011;49583;45.590;-122.498;2024-03-08T00:55:08;1.50;;;0.90;;
50631;SDS011;49583;45.590;-122.498;2024-03-08T00:57:20;1.60;;;0.70;;
50631;SDS011;49583;45.590;-122.498;2024-03-08T00:59:33;2.90;;;0.80;;
50631;SDS011;49583;45.590;-122.498;2024-03-08T01:01:47;1.00;;;0.70;;
50631;SDS011;49583;45.590;-122.498;2024-03-08T01:04:00;1.30;;;0.80;;
50631;SDS011;49583;45.590;-122.498;2024-03-08T01:06:13;1.90;;;1.00;;
50631;SDS011;49583;45.590;-122.498;2024-03-08T01:08:26;2.00;;;1.00;;
50631;SDS011;49583;45.590;-122.498;2024-03-08T01:10:38;1.40;;;1.20;;
50631;SDS011;49583;45.590;-122.498;2024-03-08T01:12:51;2.10;;;1.30;;
50631;SDS011;49583;45.590;-122.498;2024-03-08T01:15:05;2.60;;;1.20;;
50631;SDS011;49583;45.590;-122.498;2024-03-08T01:17:19;3.30;;;1.20;;
50631;SDS011;49583;45.590;-122.498;2024-03-08T01:19:31;2.20;;;1.30;;
50631;SDS011;49583;45.590;-122.498;2024-03-08T01:21:44;2.90;;;1.10;;
50631;SDS011;49583;45.590;-122.498;2024-03-08T01:23:57;2.90;;;1.30;;
50631;SDS011;49583;45.590;-122.498;2024-03-08T01:26:10;1.50;;;1.00;;
50631;SDS011;49583;45.590;-122.498;2024-03-08T01:28:23;0.80;;;0.80;;
50631;SDS011;49583;45.590;-122.498;2024-03-08T01:30:36;1.20;;;1.00;;
50631;SDS011;49583;45.590;-122.498;2024-03-08T01:32:50;3.20;;;1.00;;
50631;SDS011;49583;45.590;-122.498;2024-03-08T01:35:03;1.80;;;1.10;;
50631;SDS011;49583;45.590;-122.498;2024-03-08T01:37:17;1.40;;;0.90;;
50631;SDS011;49583;45.590;-122.498;2024-03-08T01:39:30;3.30;;;1.20;;
50631;SDS011;49583;45.590;-122.498;2024-03-08T01:41:42;3.90;;;1.60;;
50631;SDS011;49583;45.590;-122.498;2024-03-08T01:43:56;2.40;;;1.00;;
50631;SDS011;49583;45.590;-122.498;2024-03-08T01:46:08;4.20;;;1.30;;
50631;SDS011;49583;45.590;-122.498;2024-03-08T01:48:23;2.10;;;1.40;;
50631;SDS011;49583;45.590;-122.498;2024-03-08T01:50:36;4.20;;;1.20;;
50631;SDS011;49583;45.590;-122.498;2024-03-08T01:52:49;5.10;;;1.40;;
50631;SDS011;49583;45.590;-122.498;2024-03-08T01:55:03;2.80;;;1.20;;
50631;SDS011;49583;45.590;-122.498;2024-03-08T01:57:21;2.40;;;1.40;;
50631;SDS011;49583;45.590;-122.498;2024-03-08T01:59:34;6.50;;;1.10;;
50631;SDS011;49583;45.590;-122.498;2024-03-08T02:01:49;5.30;;;1.50;;
50631;SDS011;49583;45.590;-122.498;2024-03-08T02:04:03;3.70;;;1.40;;
50631;SDS011;49583;45.590;-122.498;2024-03-08T02:06:16;3.10;;;1.30;;
50631;SDS011;49583;45.590;-122.498;2024-03-08T02:08:29;2.40;;;1.50;;
50631;SDS011;49583;45.590;-122.498;2024-03-08T02:10:43;3.40;;;1.10;;
50631;SDS011;49583;45.590;-122.498;2024-03-08T02:12:57;3.90;;;1.50;;
50631;SDS011;49583;45.590;-122.498;2024-03-08T02:15:11;2.30;;;1.50;;
50631;SDS011;49583;45.590;-122.498;2024-03-08T02:17:24;4.70;;;1.20;;
50631;SDS011;49583;45.590;-122.498;2024-03-08T02:19:38;4.10;;;1.10;;
50631;SDS011;49583;45.590;-122.498;2024-03-08T02:21:51;4.40;;;1.30;;
50631;SDS011;49583;45.590;-122.498;2024-03-08T02:24:05;2.80;;;1.30;;
50631;SDS011;49583;45.590;-122.498;2024-03-08T02:26:18;2.60;;;1.20;;
50631;SDS011;49583;45.590;-122.498;2024-03-08T02:28:31;1.90;;;1.10;;
50631;SDS011;49583;45.590;-122.498;2024-03-08T02:30:44;2.20;;;1.40;;
50631;SDS011;49583;45.590;-122.498;2024-03-08T02:32:57;4.20;;;1.40;;
50631;SDS011;49583;45.590;-122.498;2024-03-08T02:35:09;3.20;;;1.10;;
50631;SDS011;49583;45.590;-122.498;2024-03-08T02:37:22;3.00;;;0.90;;
50631;SDS011;49583;45.590;-122.498;2024-03-08T02:39:36;3.70;;;1.30;;
50631;SDS011;49583;45.590;-122.498;2024-03-08T02:41:48;2.80;;;1.20;;
50631;SDS011;49583;45.590;-122.498;2024-03-08T02:44:01;4.70;;;1.30;;
50631;SDS011;49583;45.590;-122.498;2024-03-08T02:46:14;1.10;;;0.80;;
50631;SDS011;49583;45.590;-122.498;2024-03-08T02:48:28;5.00;;;1.00;;
50631;SDS011;49583;45.590;-122.498;2024-03-08T02:50:41;1.90;;;1.00;;
50631;SDS011;49583;45.590;-122.498;2024-03-08T02:52:54;1.40;;;1.00;;
50631;SDS011;49583;45.590;-122.498;2024-03-08T02:55:08;1.70;;;1.10;;
50631;SDS011;49583;45.590;-122.498;2024-03-08T02:57:23;2.50;;;1.20;;
50631;SDS011;49583;45.590;-122.498;2024-03-08T02:59:36;1.70;;;1.00;;
50631;SDS011;49583;45.590;-122.498;2024-03-08T03:01:48;2.30;;;1.30;;
50631;SDS011;49583;45.590;-122.498;2024-03-08T03:04:01;2.50;;;1.00;;
50631;SDS011;49583;45.590;-122.498;2024-03-08T03:06:15;2.70;;;1.60;;
50631;SDS011;49583;45.590;-122.498;2024-03-08T03:08:28;3.30;;;1.60;;
50631;SDS011;49583;45.590;-122.498;2024-03-08T03:10:42;5.00;;;1.40;;
50631;SDS011;49583;45.590;-122.498;2024-03-08T03:12:55;3.90;;;1.50;;
50631;SDS011;49583;45.590;-122.498;2024-03-08T03:15:08;1.40;;;1.00;;
50631;SDS011;49583;45.590;-122.498;2024-03-08T03:17:21;4.50;;;1.20;;
50631;SDS011;49583;45.590;-122.498;2024-03-08T03:19:34;4.80;;;1.30;;
50631;SDS011;49583;45.590;-122.498;2024-03-08T03:21:50;5.30;;;1.30;;
50631;SDS011;49583;45.590;-122.498;2024-03-08T03:24:03;5.10;;;1.60;;
50631;SDS011;49583;45.590;-122.498;2024-03-08T03:26:17;2.50;;;1.10;;
50631;SDS011;49583;45.590;-122.498;2024-03-08T03:28:30;3.30;;;1.10;;
50631;SDS011;49583;45.590;-122.498;2024-03-08T03:30:43;2.90;;;1.40;;
50631;SDS011;49583;45.590;-122.498;2024-03-08T03:32:56;1.40;;;1.00;;
50631;SDS011;49583;45.590;-122.498;2024-03-08T03:35:10;1.50;;;1.10;;
50631;SDS011;49583;45.590;-122.498;2024-03-08T03:37:24;3.20;;;1.00;;
50631;SDS011;49583;45.590;-122.498;2024-03-08T03:39:36;3.00;;;1.20;;
50631;SDS011;49583;45.590;-122.498;2024-03-08T03:41:56;5.00;;;1.00;;
50631;SDS011;49583;45.590;-122.498;2024-03-08T03:44:10;4.40;;;1.70;;
50631;SDS011;49583;45.590;-122.498;2024-03-08T03:46:22;2.10;;;1.60;;
50631;SDS011;49583;45.590;-122.498;2024-03-08T03:48:35;3.60;;;1.40;;
50631;SDS011;49583;45.590;-122.498;2024-03-08T03:50:49;3.00;;;1.30;;
50631;SDS011;49583;45.590;-122.498;2024-03-08T03:53:02;2.20;;;1.70;;
50631;SDS011;49583;45.590;-122.498;2024-03-08T03:55:18;2.60;;;1.60;;
50631;SDS011;49583;45.590;-122.498;2024-03-08T03:57:31;3.40;;;1.80;;
50631;SDS011;49583;45.590;-122.498;2024-03-08T03:59:44;1.70;;;1.20;;
50631;SDS011;49583;45.590;-122.498;2024-03-08T04:01:58;4.20;;;1.90;;
50631;SDS011;49583;45.590;-122.498;2024-03-08T04:04:11;2.40;;;1.40;;
50631;SDS011;49583;45.590;-122.498;2024-03-08T04:06:24;3.10;;;1.90;;
50631;SDS011;49583;45.590;-122.498;2024-03-08T04:08:37;4.10;;;1.70;;
50631;SDS011;49583;45.590;-122.498;2024-03-08T04:10:50;4.90;;;2.20;;
50631;SDS011;49583;45.590;-122.498;2024-03-08T04:13:03;3.80;;;1.80;;
50631;SDS011;49583;45.590;-122.498;2024-03-08T04:15:17;2.30;;;2.10;;
50631;SDS011;49583;45.590;-122.498;2024-03-08T04:17:30;2.70;;;1.70;;
50631;SDS011;49583;45.590;-122.498;2024-03-08T04:19:45;2.90;;;2.10;;
50631;SDS011;49583;45.590;-122.498;2024-03-08T04:21:58;5.10;;;2.40;;
50631;SDS011;49583;45.590;-122.498;2024-03-08T04:24:12;3.60;;;2.40;;
50631;SDS011;49583;45.590;-122.498;2024-03-08T04:26:25;4.40;;;2.20;;
50631;SDS011;49583;45.590;-122.498;2024-03-08T04:28:38;4.70;;;2.20;;
50631;SDS011;49583;45.590;-122.498;2024-03-08T04:30:50;4.90;;;2.10;;
50631;SDS011;49583;45.590;-122.498;2024-03-08T04:33:04;3.90;;;2.40;;
50631;SDS011;49583;45.590;-122.498;2024-03-08T04:35:17;4.40;;;2.50;;
50631;SDS011;49583;45.590;-122.498;2024-03-08T04:37:30;3.90;;;2.80;;
50631;SDS011;49583;45.590;-122.498;2024-03-08T04:39:43;3.70;;;3.00;;
50631;SDS011;49583;45.590;-122.498;2024-03-08T04:41:56;3.40;;;2.10;;
50631;SDS011;49583;45.590;-122.498;2024-03-08T04:44:14;2.80;;;2.30;;
50631;SDS011;49583;45.590;-122.498;2024-03-08T04:46:28;7.30;;;2.40;;
50631;SDS011;49583;45.590;-122.498;2024-03-08T04:48:41;5.70;;;2.80;;
50631;SDS011;49583;45.590;-122.498;2024-03-08T04:50:54;4.60;;;2.40;;
50631;SDS011;49583;45.590;-122.498;2024-03-08T04:53:07;5.10;;;2.40;;
50631;SDS011;49583;45.590;-122.498;2024-03-08T04:55:20;3.30;;;2.40;;
50631;SDS011;49583;45.590;-122.498;2024-03-08T04:57:33;3.70;;;2.40;;
50631;SDS011;49583;45.590;-122.498;2024-03-08T04:59:46;4.40;;;2.80;;
50631;SDS011;49583;45.590;-122.498;2024-03-08T05:01:58;4.80;;;2.60;;
50631;SDS011;49583;45.590;-122.498;2024-03-08T05:04:11;2.70;;;2.40;;
50631;SDS011;49583;45.590;-122.498;2024-03-08T05:06:25;4.80;;;2.80;;
50631;SDS011;49583;45.590;-122.498;2024-03-08T05:08:38;6.30;;;3.20;;
50631;SDS011;49583;45.590;-122.498;2024-03-08T05:10:51;5.90;;;3.40;;
50631;SDS011;49583;45.590;-122.498;2024-03-08T05:13:05;3.00;;;2.40;;
50631;SDS011;49583;45.590;-122.498;2024-03-08T05:15:18;7.00;;;3.80;;
50631;SDS011;49583;45.590;-122.498;2024-03-08T05:17:31;3.70;;;2.80;;
50631;SDS011;49583;45.590;-122.498;2024-03-08T05:19:43;7.30;;;3.20;;
50631;SDS011;49583;45.590;-122.498;2024-03-08T05:21:56;7.70;;;3.50;;
50631;SDS011;49583;45.590;-122.498;2024-03-08T05:24:09;4.30;;;3.00;;
50631;SDS011;49583;45.590;-122.498;2024-03-08T05:26:24;6.50;;;3.90;;
50631;SDS011;49583;45.590;-122.498;2024-03-08T05:28:39;6.50;;;3.00;;
50631;SDS011;49583;45.590;-122.498;2024-03-08T05:30:52;5.40;;;3.30;;
50631;SDS011;49583;45.590;-122.498;2024-03-08T05:33:05;3.30;;;2.40;;
50631;SDS011;49583;45.590;-122.498;2024-03-08T05:35:19;4.20;;;3.00;;
50631;SDS011;49583;45.590;-122.498;2024-03-08T05:37:32;6.00;;;3.30;;
50631;SDS011;49583;45.590;-122.498;2024-03-08T05:39:45;4.30;;;2.60;;
50631;SDS011;49583;45.590;-122.498;2024-03-08T05:41:58;3.10;;;2.00;;
50631;SDS011;49583;45.590;-122.498;2024-03-08T05:44:11;4.40;;;3.00;;
50631;SDS011;49583;45.590;-122.498;2024-03-08T05:46:25;4.90;;;2.80;;
50631;SDS011;49583;45.590;-122.498;2024-03-08T05:48:37;3.80;;;2.70;;
50631;SDS011;49583;45.590;-122.498;2024-03-08T05:50:50;2.60;;;2.40;;
50631;SDS011;49583;45.590;-122.498;2024-03-08T05:53:05;3.90;;;2.70;;
50631;SDS011;49583;45.590;-122.498;2024-03-08T05:55:17;7.40;;;2.70;;
50631;SDS011;49583;45.590;-122.498;2024-03-08T05:57:33;5.80;;;2.90;;
50631;SDS011;49583;45.590;-122.498;2024-03-08T05:59:47;4.80;;;2.60;;
50631;SDS011;49583;45.590;-122.498;2024-03-08T06:01:59;3.50;;;2.20;;
50631;SDS011;49583;45.590;-122.498;2024-03-08T06:04:12;3.20;;;2.80;;
50631;SDS011;49583;45.590;-122.498;2024-03-08T06:06:25;2.50;;;2.10;;
50631;SDS011;49583;45.590;-122.498;2024-03-08T06:08:38;2.90;;;1.60;;
50631;SDS011;49583;45.590;-122.498;2024-03-08T06:10:51;3.90;;;2.10;;
50631;SDS011;49583;45.590;-122.498;2024-03-08T06:13:04;3.80;;;1.80;;
50631;SDS011;49583;45.590;-122.498;2024-03-08T06:15:19;10.60;;;3.00;;
50631;SDS011;49583;45.590;-122.498;2024-03-08T06:17:32;4.40;;;2.80;;
50631;SDS011;49583;45.590;-122.498;2024-03-08T06:19:45;3.90;;;2.60;;
50631;SDS011;49583;45.590;-122.498;2024-03-08T06:21:57;3.10;;;2.50;;
50631;SDS011;49583;45.590;-122.498;2024-03-08T06:24:13;4.40;;;2.40;;
50631;SDS011;49583;45.590;-122.498;2024-03-08T06:26:26;3.50;;;2.40;;
50631;SDS011;49583;45.590;-122.498;2024-03-08T06:28:42;3.10;;;2.70;;
50631;SDS011;49583;45.590;-122.498;2024-03-08T06:30:55;4.40;;;3.10;;
50631;SDS011;49583;45.590;-122.498;2024-03-08T06:33:08;5.30;;;2.90;;
50631;SDS011;49583;45.590;-122.498;2024-03-08T06:35:20;6.30;;;2.50;;
50631;SDS011;49583;45.590;-122.498;2024-03-08T06:37:33;3.20;;;2.50;;
50631;SDS011;49583;45.590;-122.498;2024-03-08T06:39:45;4.20;;;2.60;;
50631;SDS011;49583;45.590;-122.498;2024-03-08T06:41:58;3.40;;;2.30;;
50631;SDS011;49583;45.590;-122.498;2024-03-08T06:44:12;3.00;;;2.40;;
50631;SDS011;49583;45.590;-122.498;2024-03-08T06:46:25;4.60;;;2.80;;
50631;SDS011;49583;45.590;-122.498;2024-03-08T06:48:37;7.10;;;3.10;;
50631;SDS011;49583;45.590;-122.498;2024-03-08T06:50:51;4.00;;;2.50;;
50631;SDS011;49583;45.590;-122.498;2024-03-08T06:53:04;3.20;;;2.30;;
50631;SDS011;49583;45.590;-122.498;2024-03-08T06:55:17;3.90;;;3.10;;
50631;SDS011;49583;45.590;-122.498;2024-03-08T06:57:30;3.50;;;1.90;;
50631;SDS011;49583;45.590;-122.498;2024-03-08T06:59:44;4.10;;;2.60;;
50631;SDS011;49583;45.590;-122.498;2024-03-08T07:01:57;4.20;;;2.10;;
50631;SDS011;49583;45.590;-122.498;2024-03-08T07:04:10;4.20;;;2.40;;
50631;SDS011;49583;45.590;-122.498;2024-03-08T07:06:23;3.80;;;2.10;;
50631;SDS011;49583;45.590;-122.498;2024-03-08T07:08:36;4.10;;;2.30;;
50631;SDS011;49583;45.590;-122.498;2024-03-08T07:10:49;3.60;;;2.40;;
50631;SDS011;49583;45.590;-122.498;2024-03-08T07:13:02;4.60;;;2.00;;
50631;SDS011;49583;45.590;-122.498;2024-03-08T07:15:15;5.00;;;1.90;;
50631;SDS011;49583;45.590;-122.498;2024-03-08T07:17:28;3.80;;;2.10;;
50631;SDS011;49583;45.590;-122.498;2024-03-08T07:19:42;1.90;;;1.70;;
50631;SDS011;49583;45.590;-122.498;2024-03-08T07:21:55;4.10;;;2.00;;
50631;SDS011;49583;45.590;-122.498;2024-03-08T07:24:11;2.90;;;1.80;;
50631;SDS011;49583;45.590;-122.498;2024-03-08T07:26:38;2.10;;;1.80;;
50631;SDS011;49583;45.590;-122.498;2024-03-08T07:28:51;2.80;;;1.80;;
50631;SDS011;49583;45.590;-122.498;2024-03-08T07:31:04;2.20;;;2.00;;
50631;SDS011;49583;45.590;-122.498;2024-03-08T07:33:29;2.70;;;2.20;;
50631;SDS011;49583;45.590;-122.498;2024-03-08T07:35:42;2.60;;;2.00;;
50631;SDS011;49583;45.590;-122.498;2024-03-08T07:37:54;3.00;;;1.90;;
50631;SDS011;49583;45.590;-122.498;2024-03-08T07:40:08;5.80;;;2.30;;
50631;SDS011;49583;45.590;-122.498;2024-03-08T07:42:22;3.80;;;2.00;;
50631;SDS011;49583;45.590;-122.498;2024-03-08T07:44:39;3.90;;;2.30;;
50631;SDS011;49583;45.590;-122.498;2024-03-08T07:46:53;3.00;;;2.10;;
50631;SDS011;49583;45.590;-122.498;2024-03-08T07:49:06;3.90;;;2.50;;
50631;SDS011;49583;45.590;-122.498;2024-03-08T07:51:19;1.90;;;1.70;;
50631;SDS011;49583;45.590;-122.498;2024-03-08T07:53:32;2.40;;;1.60;;
50631;SDS011;49583;45.590;-122.498;2024-03-08T07:55:45;1.50;;;1.40;;
50631;SDS011;49583;45.590;-122.498;2024-03-08T07:57:58;2.40;;;1.90;;
50631;SDS011;49583;45.590;-122.498;2024-03-08T08:00:12;2.50;;;1.50;;
50631;SDS011;49583;45.590;-122.498;2024-03-08T08:02:28;3.40;;;2.00;;
50631;SDS011;49583;45.590;-122.498;2024-03-08T08:04:46;2.70;;;2.00;;
50631;SDS011;49583;45.590;-122.498;2024-03-08T08:06:58;1.80;;;1.50;;
50631;SDS011;49583;45.590;-122.498;2024-03-08T08:09:11;4.30;;;2.20;;
50631;SDS011;49583;45.590;-122.498;2024-03-08T08:11:35;4.70;;;1.80;;
50631;SDS011;49583;45.590;-122.498;2024-03-08T08:13:48;3.20;;;1.90;;
50631;SDS011;49583;45.590;-122.498;2024-03-08T08:16:02;1.60;;;1.30;;
50631;SDS011;49583;45.590;-122.498;2024-03-08T08:18:16;2.70;;;2.00;;
50631;SDS011;49583;45.590;-122.498;2024-03-08T08:20:32;1.60;;;1.50;;
50631;SDS011;49583;45.590;-122.498;2024-03-08T08:22:44;2.40;;;1.80;;
50631;SDS011;49583;45.590;-122.498;2024-03-08T08:24:57;5.10;;;1.60;;
50631;SDS011;49583;45.590;-122.498;2024-03-08T08:27:10;5.30;;;1.90;;
50631;SDS011;49583;45.590;-122.498;2024-03-08T08:29:23;1.80;;;1.60;;
50631;SDS011;49583;45.590;-122.498;2024-03-08T08:31:35;2.30;;;1.80;;
50631;SDS011;49583;45.590;-122.498;2024-03-08T08:33:48;2.30;;;2.00;;
50631;SDS011;49583;45.590;-122.498;2024-03-08T08:36:06;2.90;;;2.30;;
50631;SDS011;49583;45.590;-122.498;2024-03-08T08:38:20;4.70;;;2.60;;
50631;SDS011;49583;45.590;-122.498;2024-03-08T08:40:33;3.30;;;2.40;;
50631;SDS011;49583;45.590;-122.498;2024-03-08T08:42:45;5.40;;;2.50;;
50631;SDS011;49583;45.590;-122.498;2024-03-08T08:44:58;3.50;;;2.30;;
50631;SDS011;49583;45.590;-122.498;2024-03-08T08:47:22;3.90;;;2.50;;
50631;SDS011;49583;45.590;-122.498;2024-03-08T08:49:35;3.50;;;2.10;;
50631;SDS011;49583;45.590;-122.498;2024-03-08T08:51:50;3.10;;;2.50;;
50631;SDS011;49583;45.590;-122.498;2024-03-08T08:54:08;3.50;;;2.80;;
50631;SDS011;49583;45.590;-122.498;2024-03-08T08:56:24;4.50;;;2.10;;
50631;SDS011;49583;45.590;-122.498;2024-03-08T08:58:37;3.30;;;2.40;;
50631;SDS011;49583;45.590;-122.498;2024-03-08T09:00:50;2.60;;;2.00;;
50631;SDS011;49583;45.590;-122.498;2024-03-08T09:03:02;2.30;;;1.90;;
50631;SDS011;49583;45.590;-122.498;2024-03-08T09:05:16;3.60;;;2.00;;
50631;SDS011;49583;45.590;-122.498;2024-03-08T09:07:29;3.90;;;2.30;;
50631;SDS011;49583;45.590;-122.498;2024-03-08T09:09:42;3.00;;;1.90;;
50631;SDS011;49583;45.590;-122.498;2024-03-08T09:11:55;2.50;;;2.30;;
50631;SDS011;49583;45.590;-122.498;2024-03-08T09:14:08;3.60;;;2.10;;
50631;SDS011;49583;45.590;-122.498;2024-03-08T09:16:22;4.40;;;2.20;;
50631;SDS011;49583;45.590;-122.498;2024-03-08T09:18:34;3.70;;;2.40;;
50631;SDS011;49583;45.590;-122.498;2024-03-08T09:20:47;2.90;;;2.50;;
50631;SDS011;49583;45.590;-122.498;2024-03-08T09:23:01;5.40;;;2.50;;
50631;SDS011;49583;45.590;-122.498;2024-03-08T09:25:15;2.80;;;2.20;;
50631;SDS011;49583;45.590;-122.498;2024-03-08T09:27:28;2.50;;;2.10;;
50631;SDS011;49583;45.590;-122.498;2024-03-08T09:29:45;2.40;;;1.80;;
50631;SDS011;49583;45.590;-122.498;2024-03-08T09:31:58;5.40;;;2.50;;
50631;SDS011;49583;45.590;-122.498;2024-03-08T09:34:12;3.30;;;1.80;;
50631;SDS011;49583;45.590;-122.498;2024-03-08T09:36:31;3.60;;;1.80;;
50631;SDS011;49583;45.590;-122.498;2024-03-08T09:38:44;2.20;;;2.00;;
50631;SDS011;49583;45.590;-122.498;2024-03-08T09:40:58;2.90;;;1.90;;
50631;SDS011;49583;45.590;-122.498;2024-03-08T09:43:12;3.40;;;1.90;;
50631;SDS011;49583;45.590;-122.498;2024-03-08T09:45:28;2.50;;;1.80;;
50631;SDS011;49583;45.590;-122.498;2024-03-08T09:47:47;4.40;;;2.40;;
50631;SDS011;49583;45.590;-122.498;2024-03-08T09:50:01;2.30;;;1.90;;
50631;SDS011;49583;45.590;-122.498;2024-03-08T09:52:16;2.30;;;2.00;;
50631;SDS011;49583;45.590;-122.498;2024-03-08T09:54:29;3.40;;;2.20;;
50631;SDS011;49583;45.590;-122.498;2024-03-08T09:56:42;2.90;;;2.40;;
50631;SDS011;49583;45.590;-122.498;2024-03-08T09:58:57;3.20;;;2.60;;
50631;SDS011;49583;45.590;-122.498;2024-03-08T10:01:48;4.70;;;2.50;;
50631;SDS011;49583;45.590;-122.498;2024-03-08T10:04:04;3.30;;;2.20;;
50631;SDS011;49583;45.590;-122.498;2024-03-08T10:06:18;3.10;;;2.30;;
50631;SDS011;49583;45.590;-122.498;2024-03-08T10:08:35;4.20;;;2.40;;
50631;SDS011;49583;45.590;-122.498;2024-03-08T10:10:50;4.50;;;2.70;;
50631;SDS011;49583;45.590;-122.498;2024-03-08T10:13:03;3.40;;;2.10;;
50631;SDS011;49583;45.590;-122.498;2024-03-08T10:15:19;3.60;;;2.70;;
50631;SDS011;49583;45.590;-122.498;2024-03-08T10:17:32;2.50;;;2.00;;
50631;SDS011;49583;45.590;-122.498;2024-03-08T10:19:57;4.00;;;2.50;;
50631;SDS011;49583;45.590;-122.498;2024-03-08T10:22:16;4.20;;;2.20;;
50631;SDS011;49583;45.590;-122.498;2024-03-08T10:24:29;3.60;;;2.30;;
50631;SDS011;49583;45.590;-122.498;2024-03-08T10:26:46;2.00;;;1.70;;
50631;SDS011;49583;45.590;-122.498;2024-03-08T10:29:01;2.50;;;2.00;;
50631;SDS011;49583;45.590;-122.498;2024-03-08T10:31:17;2.90;;;2.20;;
50631;SDS011;49583;45.590;-122.498;2024-03-08T10:33:30;2.80;;;2.30;;
50631;SDS011;49583;45.590;-122.498;2024-03-08T10:35:45;3.30;;;2.50;;
50631;SDS011;49583;45.590;-122.498;2024-03-08T10:37:58;4.40;;;2.00;;
50631;SDS011;49583;45.590;-122.498;2024-03-08T10:40:17;2.20;;;2.00;;
50631;SDS011;49583;45.590;-122.498;2024-03-08T10:42:30;2.60;;;1.90;;
50631;SDS011;49583;45.590;-122.498;2024-03-08T10:44:49;3.50;;;2.30;;
50631;SDS011;49583;45.590;-122.498;2024-03-08T10:47:15;4.80;;;2.90;;
50631;SDS011;49583;45.590;-122.498;2024-03-08T10:49:38;1.70;;;1.60;;
50631;SDS011;49583;45.590;-122.498;2024-03-08T10:51:57;3.00;;;2.00;;
50631;SDS011;49583;45.590;-122.498;2024-03-08T10:54:11;5.40;;;2.20;;
50631;SDS011;49583;45.590;-122.498;2024-03-08T10:56:25;2.50;;;2.20;;
50631;SDS011;49583;45.590;-122.498;2024-03-08T10:58:37;5.40;;;2.20;;
50631;SDS011;49583;45.590;-122.498;2024-03-08T11:00:51;3.20;;;2.40;;
50631;SDS011;49583;45.590;-122.498;2024-03-08T11:03:05;4.60;;;2.50;;
50631;SDS011;49583;45.590;-122.498;2024-03-08T11:05:38;2.60;;;2.20;;
50631;SDS011;49583;45.590;-122.498;2024-03-08T11:07:53;3.80;;;2.90;;
50631;SDS011;49583;45.590;-122.498;2024-03-08T11:10:06;3.60;;;2.50;;
50631;SDS011;49583;45.590;-122.498;2024-03-08T11:12:40;3.10;;;2.10;;
50631;SDS011;49583;45.590;-122.498;2024-03-08T11:14:53;3.20;;;2.20;;
50631;SDS011;49583;45.590;-122.498;2024-03-08T11:17:08;3.50;;;1.90;;
50631;SDS011;49583;45.590;-122.498;2024-03-08T11:19:27;2.10;;;1.70;;
50631;SDS011;49583;45.590;-122.498;2024-03-08T11:21:42;2.40;;;1.60;;
50631;SDS011;49583;45.590;-122.498;2024-03-08T11:24:00;1.60;;;1.50;;
50631;SDS011;49583;45.590;-122.498;2024-03-08T11:26:19;2.50;;;1.70;;
50631;SDS011;49583;45.590;-122.498;2024-03-08T11:28:33;1.90;;;1.50;;
50631;SDS011;49583;45.590;-122.498;2024-03-08T11:30:47;7.80;;;2.30;;
50631;SDS011;49583;45.590;-122.498;2024-03-08T11:33:15;3.60;;;1.20;;
50631;SDS011;49583;45.590;-122.498;2024-03-08T11:35:28;1.70;;;1.60;;
50631;SDS011;49583;45.590;-122.498;2024-03-08T11:37:41;2.40;;;2.00;;
50631;SDS011;49583;45.590;-122.498;2024-03-08T11:39:55;3.00;;;1.80;;
50631;SDS011;49583;45.590;-122.498;2024-03-08T11:42:12;2.40;;;2.00;;
50631;SDS011;49583;45.590;-122.498;2024-03-08T11:44:28;4.00;;;2.50;;
50631;SDS011;49583;45.590;-122.498;2024-03-08T11:49:47;3.20;;;1.30;;
50631;SDS011;49583;45.590;-122.498;2024-03-08T11:52:01;2.40;;;1.70;;
50631;SDS011;49583;45.590;-122.498;2024-03-08T11:54:14;1.90;;;1.60;;
50631;SDS011;49583;45.590;-122.498;2024-03-08T11:56:27;3.70;;;1.80;;
50631;SDS011;49583;45.590;-122.498;2024-03-08T11:58:39;1.80;;;1.50;;
50631;SDS011;49583;45.590;-122.498;2024-03-08T12:01:04;2.90;;;1.70;;
50631;SDS011;49583;45.590;-122.498;2024-03-08T12:03:20;2.40;;;1.80;;
50631;SDS011;49583;45.590;-122.498;2024-03-08T12:05:32;4.10;;;1.60;;
50631;SDS011;49583;45.590;-122.498;2024-03-08T12:07:45;2.90;;;1.70;;
50631;SDS011;49583;45.590;-122.498;2024-03-08T12:10:21;2.40;;;1.60;;
50631;SDS011;49583;45.590;-122.498;2024-03-08T12:12:35;1.90;;;1.80;;
50631;SDS011;49583;45.590;-122.498;2024-03-08T12:14:49;1.60;;;1.40;;
50631;SDS011;49583;45.590;-122.498;2024-03-08T12:17:03;1.90;;;1.70;;
50631;SDS011;49583;45.590;-122.498;2024-03-08T12:19:20;2.50;;;1.70;;
50631;SDS011;49583;45.590;-122.498;2024-03-08T12:21:33;2.90;;;1.90;;
50631;SDS011;49583;45.590;-122.498;2024-03-08T12:24:03;1.50;;;1.30;;
50631;SDS011;49583;45.590;-122.498;2024-03-08T12:26:18;2.40;;;1.50;;
50631;SDS011;49583;45.590;-122.498;2024-03-08T12:28:36;5.40;;;2.00;;
50631;SDS011;49583;45.590;-122.498;2024-03-08T12:30:54;2.80;;;1.60;;
50631;SDS011;49583;45.590;-122.498;2024-03-08T12:33:08;2.10;;;1.80;;
50631;SDS011;49583;45.590;-122.498;2024-03-08T12:35:21;5.00;;;2.00;;
50631;SDS011;49583;45.590;-122.498;2024-03-08T12:37:34;2.30;;;1.80;;
50631;SDS011;49583;45.590;-122.498;2024-03-08T12:39:47;2.80;;;2.00;;
50631;SDS011;49583;45.590;-122.498;2024-03-08T12:42:00;2.00;;;1.90;;
50631;SDS011;49583;45.590;-122.498;2024-03-08T12:44:14;3.30;;;1.70;;
50631;SDS011;49583;45.590;-122.498;2024-03-08T12:46:27;2.10;;;1.90;;
50631;SDS011;49583;45.590;-122.498;2024-03-08T12:48:42;2.00;;;1.80;;
50631;SDS011;49583;45.590;-122.498;2024-03-08T12:50:55;2.20;;;1.60;;
50631;SDS011;49583;45.590;-122.498;2024-03-08T12:53:08;1.70;;;1.30;;
50631;SDS011;49583;45.590;-122.498;2024-03-08T12:55:22;3.60;;;1.50;;
50631;SDS011;49583;45.590;-122.498;2024-03-08T12:57:35;2.50;;;1.60;;